createdAt,value
2022-12-02T00:00:01.000Z,1.2777777777777761
2022-12-02T00:00:36.000Z,1.2777777777777761
2022-12-02T00:01:06.000Z,1.2777777777777761
2022-12-02T00:01:36.000Z,1.2777777777777761
2022-12-02T00:02:06.000Z,1.2777777777777761
2022-12-02T00:02:36.000Z,1.2777777777777761
2022-12-02T00:03:06.000Z,1.1111111111111112
2022-12-02T00:03:32.000Z,1.2777777777777761
2022-12-02T00:03:59.000Z,1.2777777777777761
2022-12-02T00:04:22.000Z,1.2777777777777761
2022-12-02T00:04:47.000Z,1.1111111111111112
2022-12-02T00:05:16.000Z,1.2777777777777761
2022-12-02T00:05:39.000Z,1.2777777777777761
2022-12-02T00:06:06.000Z,1.2777777777777761
2022-12-02T00:06:29.000Z,1.2777777777777761
2022-12-02T00:06:56.000Z,1.2777777777777761
2022-12-02T00:07:31.000Z,1.2777777777777761
2022-12-02T00:08:11.000Z,1.2777777777777761
2022-12-02T00:08:36.000Z,1.2777777777777761
2022-12-02T00:09:01.000Z,1.2777777777777761
2022-12-02T00:09:31.000Z,1.2777777777777761
2022-12-02T00:09:57.000Z,1.2777777777777761
2022-12-02T00:10:27.000Z,1.2777777777777761
2022-12-02T00:11:01.000Z,1.2777777777777761
2022-12-02T00:11:31.000Z,1.2777777777777761
2022-12-02T00:12:01.000Z,1.2777777777777761
2022-12-02T00:12:36.000Z,1.2777777777777761
2022-12-02T00:13:06.000Z,1.2777777777777761
2022-12-02T00:13:36.000Z,1.2777777777777761
2022-12-02T00:14:02.000Z,1.2777777777777761
2022-12-02T00:14:26.000Z,1.2777777777777761
2022-12-02T00:14:56.000Z,1.2777777777777761
2022-12-02T00:15:31.000Z,1.2777777777777761
2022-12-02T00:16:01.000Z,1.2777777777777761
2022-12-02T00:16:36.000Z,1.2777777777777761
2022-12-02T00:17:06.000Z,1.2777777777777761
2022-12-02T00:17:36.000Z,1.2777777777777761
2022-12-02T00:18:02.000Z,1.2777777777777761
2022-12-02T00:18:23.000Z,1.2777777777777761
2022-12-02T00:18:51.000Z,1.2777777777777761
2022-12-02T00:19:18.000Z,1.2777777777777761
2022-12-02T00:19:43.000Z,1.2777777777777761
2022-12-02T00:20:11.000Z,1.2777777777777761
2022-12-02T00:20:36.000Z,1.2777777777777761
2022-12-02T00:21:06.000Z,1.2777777777777761
2022-12-02T00:21:36.000Z,1.2777777777777761
2022-12-02T00:22:03.000Z,1.2777777777777761
2022-12-02T00:22:26.000Z,1.2777777777777761
2022-12-02T00:22:56.000Z,1.2777777777777761
2022-12-02T00:23:31.000Z,1.2777777777777761
2022-12-02T00:24:01.000Z,1.2777777777777761
2022-12-02T00:24:36.000Z,1.2777777777777761
2022-12-02T00:25:06.000Z,1.2777777777777761
2022-12-02T00:25:36.000Z,1.2777777777777761
2022-12-02T00:26:02.000Z,1.2777777777777761
2022-12-02T00:26:26.000Z,1.2777777777777761
2022-12-02T00:26:56.000Z,1.2777777777777761
2022-12-02T00:27:41.000Z,1.2777777777777761
2022-12-02T00:28:11.000Z,1.2777777777777761
2022-12-02T00:28:36.000Z,1.2777777777777761
2022-12-02T00:29:06.000Z,1.2777777777777761
2022-12-02T00:29:36.000Z,1.2777777777777761
2022-12-02T00:30:03.000Z,1.2777777777777761
2022-12-02T00:30:26.000Z,1.2777777777777761
2022-12-02T00:30:56.000Z,1.3888888888888888
2022-12-02T00:31:31.000Z,1.3888888888888888
2022-12-02T00:32:01.000Z,1.3888888888888888
2022-12-02T00:32:36.000Z,1.2777777777777761
2022-12-02T00:33:06.000Z,1.2777777777777761
2022-12-02T00:33:36.000Z,1.2777777777777761
2022-12-02T00:34:03.000Z,1.2777777777777761
2022-12-02T00:34:26.000Z,1.2777777777777761
2022-12-02T00:34:56.000Z,1.2777777777777761
2022-12-02T00:35:41.000Z,1.2777777777777761
2022-12-02T00:36:11.000Z,1.2777777777777761
2022-12-02T00:36:36.000Z,1.2777777777777761
2022-12-02T00:37:01.000Z,1.2777777777777761
2022-12-02T00:37:31.000Z,1.2777777777777761
2022-12-02T00:37:57.000Z,1.2777777777777761
2022-12-02T00:38:23.000Z,1.2777777777777761
2022-12-02T00:38:51.000Z,1.2777777777777761
2022-12-02T00:39:18.000Z,1.2777777777777761
2022-12-02T00:39:46.000Z,1.3888888888888888
2022-12-02T00:40:21.000Z,1.3888888888888888
2022-12-02T00:40:51.000Z,1.3888888888888888
2022-12-02T00:41:21.000Z,1.3888888888888888
2022-12-02T00:41:56.000Z,1.3888888888888888
2022-12-02T00:42:26.000Z,1.3888888888888888
2022-12-02T00:42:56.000Z,1.3888888888888888
2022-12-02T00:43:31.000Z,1.3888888888888888
2022-12-02T00:44:01.000Z,1.3888888888888888
2022-12-02T00:44:36.000Z,1.3888888888888888
2022-12-02T00:45:07.000Z,1.3888888888888888
2022-12-02T00:45:46.000Z,1.3888888888888888
2022-12-02T00:46:12.000Z,1.3888888888888888
2022-12-02T00:46:39.000Z,1.3888888888888888
2022-12-02T00:47:06.000Z,1.3888888888888888
2022-12-02T00:47:31.000Z,1.2777777777777761
2022-12-02T00:47:59.000Z,1.2777777777777761
2022-12-02T00:48:22.000Z,1.2777777777777761
2022-12-02T00:48:51.000Z,1.2777777777777761
2022-12-02T00:49:07.000Z,1.2777777777777761
2022-12-02T00:49:36.000Z,1.2777777777777761
2022-12-02T00:49:56.000Z,1.2777777777777761
2022-12-02T00:50:26.000Z,1.2777777777777761
2022-12-02T00:50:56.000Z,1.3888888888888888
2022-12-02T00:51:31.000Z,1.3888888888888888
2022-12-02T00:52:01.000Z,1.3888888888888888
2022-12-02T00:52:36.000Z,1.3888888888888888
2022-12-02T00:53:06.000Z,1.3888888888888888
2022-12-02T00:53:36.000Z,1.3888888888888888
2022-12-02T00:53:56.000Z,1.5000000000000016
2022-12-02T00:54:27.000Z,1.5000000000000016
2022-12-02T00:54:57.000Z,1.5000000000000016
2022-12-02T00:55:31.000Z,1.5000000000000016
2022-12-02T00:56:01.000Z,1.5000000000000016
2022-12-02T00:56:36.000Z,1.5000000000000016
2022-12-02T00:57:06.000Z,1.5000000000000016
2022-12-02T00:57:36.000Z,1.5000000000000016
2022-12-02T00:58:03.000Z,1.5000000000000016
2022-12-02T00:58:26.000Z,1.3888888888888888
2022-12-02T00:58:56.000Z,1.3888888888888888
2022-12-02T00:59:31.000Z,1.3888888888888888
2022-12-02T01:00:01.000Z,1.3888888888888888
2022-12-02T01:00:36.000Z,1.3888888888888888
2022-12-02T01:01:06.000Z,1.3888888888888888
2022-12-02T01:01:36.000Z,1.3888888888888888
2022-12-02T01:02:06.000Z,1.3888888888888888
2022-12-02T01:02:29.000Z,1.3888888888888888
2022-12-02T01:02:56.000Z,1.3888888888888888
2022-12-02T01:03:31.000Z,1.3888888888888888
2022-12-02T01:04:11.000Z,1.3888888888888888
2022-12-02T01:04:36.000Z,1.3888888888888888
2022-12-02T01:05:01.000Z,1.3888888888888888
2022-12-02T01:05:31.000Z,1.3888888888888888
2022-12-02T01:05:57.000Z,1.3888888888888888
2022-12-02T01:06:23.000Z,1.3888888888888888
2022-12-02T01:07:01.000Z,1.5000000000000016
2022-12-02T01:07:31.000Z,1.5000000000000016
2022-12-02T01:08:11.000Z,1.5000000000000016
2022-12-02T01:08:36.000Z,1.3888888888888888
2022-12-02T01:09:06.000Z,1.3888888888888888
2022-12-02T01:09:36.000Z,1.3888888888888888
2022-12-02T01:10:03.000Z,1.3888888888888888
2022-12-02T01:10:26.000Z,1.5000000000000016
2022-12-02T01:10:56.000Z,1.5000000000000016
2022-12-02T01:11:31.000Z,1.6111111111111103
2022-12-02T01:12:01.000Z,1.3888888888888888
2022-12-02T01:12:36.000Z,1.5000000000000016
2022-12-02T01:13:06.000Z,1.5000000000000016
2022-12-02T01:13:36.000Z,1.5000000000000016
2022-12-02T01:14:03.000Z,1.5000000000000016
2022-12-02T01:14:23.000Z,1.5000000000000016
2022-12-02T01:14:51.000Z,1.5000000000000016
2022-12-02T01:15:18.000Z,1.5000000000000016
2022-12-02T01:15:43.000Z,1.6111111111111103
2022-12-02T01:16:11.000Z,1.6111111111111103
2022-12-02T01:16:51.000Z,1.6111111111111103
2022-12-02T01:17:07.000Z,1.6111111111111103
2022-12-02T01:17:36.000Z,1.6111111111111103
2022-12-02T01:18:03.000Z,1.5000000000000016
2022-12-02T01:18:26.000Z,1.5000000000000016
2022-12-02T01:18:56.000Z,1.5000000000000016
2022-12-02T01:19:31.000Z,1.5000000000000016
2022-12-02T01:20:01.000Z,1.5000000000000016
2022-12-02T01:20:36.000Z,1.5000000000000016
2022-12-02T01:21:06.000Z,1.5000000000000016
2022-12-02T01:21:36.000Z,1.5000000000000016
2022-12-02T01:22:02.000Z,1.5000000000000016
2022-12-02T01:22:26.000Z,1.5000000000000016
2022-12-02T01:22:56.000Z,1.5000000000000016
2022-12-02T01:23:31.000Z,1.5000000000000016
2022-12-02T01:24:01.000Z,1.5000000000000016
2022-12-02T01:24:36.000Z,1.5000000000000016
2022-12-02T01:25:06.000Z,1.5000000000000016
2022-12-02T01:25:36.000Z,1.5000000000000016
2022-12-02T01:26:03.000Z,1.5000000000000016
2022-12-02T01:26:26.000Z,1.5000000000000016
2022-12-02T01:26:56.000Z,1.5000000000000016
2022-12-02T01:27:31.000Z,1.5000000000000016
2022-12-02T01:28:01.000Z,1.5000000000000016
2022-12-02T01:28:36.000Z,1.5000000000000016
2022-12-02T01:29:06.000Z,1.5000000000000016
2022-12-02T01:29:36.000Z,1.5000000000000016
2022-12-02T01:30:06.000Z,1.5000000000000016
2022-12-02T01:30:23.000Z,1.5000000000000016
2022-12-02T01:30:41.000Z,1.5000000000000016
2022-12-02T01:31:06.000Z,1.5000000000000016
2022-12-02T01:31:31.000Z,1.5000000000000016
2022-12-02T01:32:01.000Z,1.5000000000000016
2022-12-02T01:32:36.000Z,1.5000000000000016
2022-12-02T01:33:06.000Z,1.5000000000000016
2022-12-02T01:33:36.000Z,1.5000000000000016
2022-12-02T01:34:03.000Z,1.5000000000000016
2022-12-02T01:34:26.000Z,1.5000000000000016
2022-12-02T01:34:56.000Z,1.5000000000000016
2022-12-02T01:35:31.000Z,1.5000000000000016
2022-12-02T01:36:01.000Z,1.5000000000000016
2022-12-02T01:36:36.000Z,1.5000000000000016
2022-12-02T01:37:16.000Z,1.5000000000000016
2022-12-02T01:37:36.000Z,1.5000000000000016
2022-12-02T01:38:03.000Z,1.5000000000000016
2022-12-02T01:38:26.000Z,1.5000000000000016
2022-12-02T01:38:56.000Z,1.5000000000000016
2022-12-02T01:39:31.000Z,1.5000000000000016
2022-12-02T01:40:01.000Z,1.5000000000000016
2022-12-02T01:40:36.000Z,1.5000000000000016
2022-12-02T01:41:07.000Z,1.5000000000000016
2022-12-02T01:41:36.000Z,1.5000000000000016
2022-12-02T01:42:03.000Z,1.5000000000000016
2022-12-02T01:42:26.000Z,1.5000000000000016
2022-12-02T01:42:56.000Z,1.5000000000000016
2022-12-02T01:43:31.000Z,1.5000000000000016
2022-12-02T01:44:11.000Z,1.5000000000000016
2022-12-02T01:44:36.000Z,1.5000000000000016
2022-12-02T01:45:06.000Z,1.5000000000000016
2022-12-02T01:45:36.000Z,1.5000000000000016
2022-12-02T01:46:03.000Z,1.5000000000000016
2022-12-02T01:46:26.000Z,1.5000000000000016
2022-12-02T01:46:56.000Z,1.5000000000000016
2022-12-02T01:47:31.000Z,1.5000000000000016
2022-12-02T01:48:01.000Z,1.5000000000000016
2022-12-02T01:48:36.000Z,1.5000000000000016
2022-12-02T01:49:06.000Z,1.5000000000000016
2022-12-02T01:49:36.000Z,1.5000000000000016
2022-12-02T01:50:04.000Z,1.5000000000000016
2022-12-02T01:50:26.000Z,1.5000000000000016
2022-12-02T01:51:06.000Z,1.5000000000000016
2022-12-02T01:51:31.000Z,1.7777777777777795
2022-12-02T01:51:59.000Z,1.7777777777777795
2022-12-02T01:52:22.000Z,1.5000000000000016
2022-12-02T01:52:47.000Z,1.5000000000000016
2022-12-02T01:53:22.000Z,1.5000000000000016
2022-12-02T01:53:56.000Z,1.7777777777777795
2022-12-02T01:54:26.000Z,1.5000000000000016
2022-12-02T01:54:56.000Z,1.5000000000000016
2022-12-02T01:55:31.000Z,1.3888888888888888
2022-12-02T01:56:01.000Z,1.722222222222223
2022-12-02T01:56:36.000Z,1.722222222222223
2022-12-02T01:57:06.000Z,1.722222222222223
2022-12-02T01:57:36.000Z,1.722222222222223
2022-12-02T01:58:03.000Z,1.722222222222223
2022-12-02T01:58:26.000Z,1.722222222222223
2022-12-02T01:58:56.000Z,1.722222222222223
2022-12-02T01:59:31.000Z,1.7777777777777795
2022-12-02T02:00:01.000Z,1.7777777777777795
2022-12-02T02:00:36.000Z,1.7777777777777795
2022-12-02T02:01:06.000Z,1.7777777777777795
2022-12-02T02:01:36.000Z,1.7777777777777795
2022-12-02T02:02:03.000Z,1.7777777777777795
2022-12-02T02:02:26.000Z,1.7777777777777795
2022-12-02T02:02:56.000Z,1.7777777777777795
2022-12-02T02:03:31.000Z,1.722222222222223
2022-12-02T02:04:01.000Z,1.722222222222223
2022-12-02T02:04:36.000Z,1.722222222222223
2022-12-02T02:05:06.000Z,1.722222222222223
2022-12-02T02:05:36.000Z,1.7777777777777795
2022-12-02T02:06:03.000Z,1.7777777777777795
2022-12-02T02:06:26.000Z,1.7777777777777795
2022-12-02T02:06:56.000Z,1.7777777777777795
2022-12-02T02:07:31.000Z,1.7777777777777795
2022-12-02T02:07:59.000Z,1.722222222222223
2022-12-02T02:08:51.000Z,1.722222222222223
2022-12-02T02:09:16.000Z,1.722222222222223
2022-12-02T02:09:39.000Z,1.722222222222223
2022-12-02T02:10:06.000Z,1.722222222222223
2022-12-02T02:10:29.000Z,1.722222222222223
2022-12-02T02:10:56.000Z,1.722222222222223
2022-12-02T02:11:32.000Z,1.722222222222223
2022-12-02T02:12:01.000Z,1.7777777777777795
2022-12-02T02:12:36.000Z,1.7777777777777795
2022-12-02T02:13:07.000Z,1.7777777777777795
2022-12-02T02:13:41.000Z,1.722222222222223
2022-12-02T02:14:03.000Z,1.722222222222223
2022-12-02T02:14:26.000Z,1.722222222222223
2022-12-02T02:14:56.000Z,1.722222222222223
2022-12-02T02:15:31.000Z,1.722222222222223
2022-12-02T02:16:01.000Z,1.722222222222223
2022-12-02T02:16:36.000Z,1.722222222222223
2022-12-02T02:17:06.000Z,1.722222222222223
2022-12-02T02:17:36.000Z,1.722222222222223
2022-12-02T02:18:02.000Z,1.722222222222223
2022-12-02T02:18:23.000Z,1.722222222222223
2022-12-02T02:18:41.000Z,1.722222222222223
2022-12-02T02:19:06.000Z,1.722222222222223
2022-12-02T02:19:31.000Z,1.722222222222223
2022-12-02T02:20:01.000Z,1.722222222222223
2022-12-02T02:20:36.000Z,1.722222222222223
2022-12-02T02:21:06.000Z,1.722222222222223
2022-12-02T02:21:36.000Z,1.7777777777777795
2022-12-02T02:22:03.000Z,1.7777777777777795
2022-12-02T02:22:26.000Z,1.7777777777777795
2022-12-02T02:22:56.000Z,1.7777777777777795
2022-12-02T02:23:13.000Z,1.722222222222223
2022-12-02T02:23:46.000Z,1.722222222222223
2022-12-02T02:24:08.000Z,1.722222222222223
2022-12-02T02:24:36.000Z,1.722222222222223
2022-12-02T02:25:06.000Z,1.722222222222223
2022-12-02T02:25:46.000Z,1.722222222222223
2022-12-02T02:26:12.000Z,1.722222222222223
2022-12-02T02:26:39.000Z,1.7777777777777795
2022-12-02T02:27:06.000Z,1.722222222222223
2022-12-02T02:27:31.000Z,1.722222222222223
2022-12-02T02:27:59.000Z,1.7777777777777795
2022-12-02T02:28:22.000Z,1.7777777777777795
2022-12-02T02:28:47.000Z,1.7777777777777795
2022-12-02T02:29:16.000Z,1.7777777777777795
2022-12-02T02:29:39.000Z,1.7777777777777795
2022-12-02T02:30:06.000Z,1.7777777777777795
2022-12-02T02:30:29.000Z,2.000000000000001
2022-12-02T02:30:56.000Z,1.7777777777777795
2022-12-02T02:31:22.000Z,1.7777777777777795
2022-12-02T02:31:47.000Z,2.000000000000001
2022-12-02T02:32:21.000Z,2.000000000000001
2022-12-02T02:32:51.000Z,2.000000000000001
2022-12-02T02:33:06.000Z,2.000000000000001
2022-12-02T02:33:36.000Z,1.8888888888888882
2022-12-02T02:34:03.000Z,1.8888888888888882
2022-12-02T02:34:26.000Z,1.8888888888888882
2022-12-02T02:34:56.000Z,1.8888888888888882
2022-12-02T02:35:31.000Z,1.8888888888888882
2022-12-02T02:36:01.000Z,1.8888888888888882
2022-12-02T02:36:36.000Z,1.8888888888888882
2022-12-02T02:37:06.000Z,2.000000000000001
2022-12-02T02:37:36.000Z,2.000000000000001
2022-12-02T02:38:03.000Z,2.000000000000001
2022-12-02T02:38:27.000Z,2.000000000000001
2022-12-02T02:38:56.000Z,2.000000000000001
2022-12-02T02:39:31.000Z,2.000000000000001
2022-12-02T02:40:01.000Z,2.000000000000001
2022-12-02T02:40:36.000Z,2.000000000000001
2022-12-02T02:41:07.000Z,1.8888888888888882
2022-12-02T02:41:36.000Z,1.8888888888888882
2022-12-02T02:42:03.000Z,1.8888888888888882
2022-12-02T02:42:26.000Z,1.8888888888888882
2022-12-02T02:42:56.000Z,1.8888888888888882
2022-12-02T02:43:31.000Z,1.8888888888888882
2022-12-02T02:44:01.000Z,1.8888888888888882
2022-12-02T02:44:36.000Z,1.8888888888888882
2022-12-02T02:45:06.000Z,1.8888888888888882
2022-12-02T02:45:46.000Z,1.8888888888888882
2022-12-02T02:46:12.000Z,1.8888888888888882
2022-12-02T02:46:41.000Z,1.8888888888888882
2022-12-02T02:47:06.000Z,1.8888888888888882
2022-12-02T02:47:31.000Z,1.8888888888888882
2022-12-02T02:48:02.000Z,1.8888888888888882
2022-12-02T02:48:36.000Z,1.8888888888888882
2022-12-02T02:49:06.000Z,1.8888888888888882
2022-12-02T02:49:36.000Z,1.8888888888888882
2022-12-02T02:50:03.000Z,1.8888888888888882
2022-12-02T02:50:26.000Z,1.8888888888888882
2022-12-02T02:50:56.000Z,2.000000000000001
2022-12-02T02:51:31.000Z,2.000000000000001
2022-12-02T02:52:01.000Z,2.000000000000001
2022-12-02T02:52:37.000Z,2.000000000000001
2022-12-02T02:53:16.000Z,1.8888888888888882
2022-12-02T02:53:39.000Z,1.8888888888888882
2022-12-02T02:54:03.000Z,1.8888888888888882
2022-12-02T02:54:26.000Z,1.8888888888888882
2022-12-02T02:54:56.000Z,1.8888888888888882
2022-12-02T02:55:31.000Z,1.8888888888888882
2022-12-02T02:56:01.000Z,1.8888888888888882
2022-12-02T02:56:36.000Z,1.8888888888888882
2022-12-02T02:57:06.000Z,1.8888888888888882
2022-12-02T02:57:36.000Z,1.8888888888888882
2022-12-02T02:58:03.000Z,1.8888888888888882
2022-12-02T02:58:27.000Z,1.8888888888888882
2022-12-02T02:58:56.000Z,1.8888888888888882
2022-12-02T02:59:31.000Z,1.8888888888888882
2022-12-02T03:00:01.000Z,1.8888888888888882
2022-12-02T03:00:36.000Z,1.8888888888888882
2022-12-02T03:01:16.000Z,1.8888888888888882
2022-12-02T03:01:40.000Z,1.8888888888888882
2022-12-02T03:02:06.000Z,1.8888888888888882
2022-12-02T03:02:29.000Z,1.8888888888888882
2022-12-02T03:02:56.000Z,1.8888888888888882
2022-12-02T03:03:31.000Z,1.8888888888888882
2022-12-02T03:03:59.000Z,1.8888888888888882
2022-12-02T03:04:16.000Z,1.8888888888888882
2022-12-02T03:04:47.000Z,1.8888888888888882
2022-12-02T03:05:16.000Z,1.8888888888888882
2022-12-02T03:05:39.000Z,1.8888888888888882
2022-12-02T03:06:06.000Z,1.8888888888888882
2022-12-02T03:06:29.000Z,1.8888888888888882
2022-12-02T03:06:56.000Z,1.8888888888888882
2022-12-02T03:07:31.000Z,1.8888888888888882
2022-12-02T03:08:11.000Z,1.8888888888888882
2022-12-02T03:08:36.000Z,1.8888888888888882
2022-12-02T03:09:01.000Z,1.8888888888888882
2022-12-02T03:09:31.000Z,1.8888888888888882
2022-12-02T03:09:56.000Z,2.000000000000001
2022-12-02T03:10:26.000Z,2.000000000000001
2022-12-02T03:10:56.000Z,2.000000000000001
2022-12-02T03:11:31.000Z,1.8888888888888882
2022-12-02T03:12:01.000Z,1.8888888888888882
2022-12-02T03:12:36.000Z,1.8888888888888882
2022-12-02T03:13:06.000Z,1.8888888888888882
2022-12-02T03:13:36.000Z,2.000000000000001
2022-12-02T03:14:03.000Z,2.000000000000001
2022-12-02T03:14:26.000Z,2.000000000000001
2022-12-02T03:14:56.000Z,2.000000000000001
2022-12-02T03:15:31.000Z,2.000000000000001
2022-12-02T03:16:11.000Z,2.1111111111111094
2022-12-02T03:16:36.000Z,2.1111111111111094
2022-12-02T03:17:01.000Z,2.1111111111111094
2022-12-02T03:17:31.000Z,2.000000000000001
2022-12-02T03:17:57.000Z,2.1111111111111094
2022-12-02T03:18:23.000Z,2.1111111111111094
2022-12-02T03:18:51.000Z,2.1111111111111094
2022-12-02T03:19:18.000Z,2.1111111111111094
2022-12-02T03:19:43.000Z,2.1111111111111094
2022-12-02T03:20:11.000Z,2.1111111111111094
2022-12-02T03:20:46.000Z,2.1111111111111094
2022-12-02T03:21:16.000Z,2.1111111111111094
2022-12-02T03:21:39.000Z,2.1111111111111094
2022-12-02T03:22:03.000Z,2.1111111111111094
2022-12-02T03:22:26.000Z,2.1111111111111094
2022-12-02T03:22:56.000Z,2.1111111111111094
2022-12-02T03:23:31.000Z,2.1111111111111094
2022-12-02T03:24:01.000Z,2.1111111111111094
2022-12-02T03:24:36.000Z,2.1111111111111094
2022-12-02T03:25:06.000Z,2.1111111111111094
2022-12-02T03:25:36.000Z,2.1111111111111094
2022-12-02T03:26:03.000Z,2.1111111111111094
2022-12-02T03:26:26.000Z,2.1111111111111094
2022-12-02T03:26:56.000Z,2.1111111111111094
2022-12-02T03:27:31.000Z,2.000000000000001
2022-12-02T03:28:01.000Z,2.000000000000001
2022-12-02T03:28:46.000Z,2.000000000000001
2022-12-02T03:29:16.000Z,2.000000000000001
2022-12-02T03:29:39.000Z,2.000000000000001
2022-12-02T03:30:06.000Z,2.000000000000001
2022-12-02T03:30:39.000Z,2.000000000000001
2022-12-02T03:31:06.000Z,2.000000000000001
2022-12-02T03:31:31.000Z,2.000000000000001
2022-12-02T03:31:59.000Z,2.1111111111111094
2022-12-02T03:32:22.000Z,2.1111111111111094
2022-12-02T03:32:55.000Z,2.1111111111111094
2022-12-02T03:33:22.000Z,2.1111111111111094
2022-12-02T03:33:56.000Z,1.8888888888888882
2022-12-02T03:34:36.000Z,1.8888888888888882
2022-12-02T03:35:06.000Z,1.8888888888888882
2022-12-02T03:35:31.000Z,2.000000000000001
2022-12-02T03:35:59.000Z,2.000000000000001
2022-12-02T03:36:22.000Z,2.000000000000001
2022-12-02T03:36:47.000Z,2.000000000000001
2022-12-02T03:37:16.000Z,1.8888888888888882
2022-12-02T03:37:39.000Z,2.1111111111111094
2022-12-02T03:38:03.000Z,2.000000000000001
2022-12-02T03:38:26.000Z,2.1111111111111094
2022-12-02T03:38:56.000Z,2.1111111111111094
2022-12-02T03:39:31.000Z,2.000000000000001
2022-12-02T03:40:01.000Z,2.000000000000001
2022-12-02T03:40:36.000Z,2.000000000000001
2022-12-02T03:41:06.000Z,2.000000000000001
2022-12-02T03:41:36.000Z,2.000000000000001
2022-12-02T03:42:03.000Z,2.000000000000001
2022-12-02T03:42:26.000Z,2.000000000000001
2022-12-02T03:42:56.000Z,2.000000000000001
2022-12-02T03:43:31.000Z,2.000000000000001
2022-12-02T03:44:11.000Z,2.000000000000001
2022-12-02T03:44:36.000Z,2.000000000000001
2022-12-02T03:45:01.000Z,2.000000000000001
2022-12-02T03:45:31.000Z,2.1111111111111094
2022-12-02T03:45:57.000Z,2.1111111111111094
2022-12-02T03:46:23.000Z,2.1111111111111094
2022-12-02T03:46:51.000Z,2.1111111111111094
2022-12-02T03:47:18.000Z,2.1111111111111094
2022-12-02T03:47:43.000Z,2.1111111111111094
2022-12-02T03:48:11.000Z,2.1111111111111094
2022-12-02T03:48:36.000Z,2.000000000000001
2022-12-02T03:49:01.000Z,2.000000000000001
2022-12-02T03:49:31.000Z,2.000000000000001
2022-12-02T03:49:57.000Z,2.000000000000001
2022-12-02T03:50:26.000Z,2.000000000000001
2022-12-02T03:50:56.000Z,2.000000000000001
2022-12-02T03:51:31.000Z,2.000000000000001
2022-12-02T03:52:01.000Z,2.000000000000001
2022-12-02T03:52:36.000Z,2.1111111111111094
2022-12-02T03:53:06.000Z,2.1111111111111094
2022-12-02T03:53:36.000Z,2.1111111111111094
2022-12-02T03:54:03.000Z,2.1111111111111094
2022-12-02T03:54:26.000Z,2.1111111111111094
2022-12-02T03:54:56.000Z,2.1111111111111094
2022-12-02T03:55:31.000Z,2.1111111111111094
2022-12-02T03:56:01.000Z,2.1111111111111094
2022-12-02T03:56:36.000Z,2.1111111111111094
2022-12-02T03:57:01.000Z,2.1111111111111094
2022-12-02T03:57:31.000Z,2.1111111111111094
2022-12-02T03:57:56.000Z,2.1111111111111094
2022-12-02T03:58:26.000Z,2.1111111111111094
2022-12-02T03:58:56.000Z,2.1111111111111094
2022-12-02T03:59:31.000Z,2.1111111111111094
2022-12-02T04:00:01.000Z,2.1111111111111094
2022-12-02T04:00:36.000Z,2.1111111111111094
2022-12-02T04:01:06.000Z,2.1111111111111094
2022-12-02T04:01:36.000Z,2.1111111111111094
2022-12-02T04:02:03.000Z,2.1111111111111094
2022-12-02T04:02:26.000Z,2.000000000000001
2022-12-02T04:02:56.000Z,2.000000000000001
2022-12-02T04:03:13.000Z,2.000000000000001
2022-12-02T04:03:46.000Z,2.000000000000001
2022-12-02T04:04:21.000Z,2.000000000000001
2022-12-02T04:04:51.000Z,2.000000000000001
2022-12-02T04:05:06.000Z,2.000000000000001
2022-12-02T04:05:36.000Z,2.000000000000001
2022-12-02T04:06:03.000Z,2.000000000000001
2022-12-02T04:06:26.000Z,2.000000000000001
2022-12-02T04:06:56.000Z,2.000000000000001
2022-12-02T04:07:31.000Z,2.1111111111111094
2022-12-02T04:08:01.000Z,2.1111111111111094
2022-12-02T04:08:37.000Z,2.1111111111111094
2022-12-02T04:09:06.000Z,2.1111111111111094
2022-12-02T04:09:36.000Z,2.1111111111111094
2022-12-02T04:10:03.000Z,2.1111111111111094
2022-12-02T04:10:26.000Z,2.000000000000001
2022-12-02T04:11:06.000Z,2.000000000000001
2022-12-02T04:11:31.000Z,2.000000000000001
2022-12-02T04:11:59.000Z,2.000000000000001
2022-12-02T04:12:22.000Z,2.000000000000001
2022-12-02T04:12:47.000Z,2.000000000000001
2022-12-02T04:13:16.000Z,2.000000000000001
2022-12-02T04:13:39.000Z,2.000000000000001
2022-12-02T04:14:06.000Z,2.000000000000001
2022-12-02T04:14:29.000Z,2.000000000000001
2022-12-02T04:14:56.000Z,2.000000000000001
2022-12-02T04:15:31.000Z,2.000000000000001
2022-12-02T04:15:59.000Z,2.000000000000001
2022-12-02T04:16:16.000Z,2.000000000000001
2022-12-02T04:16:47.000Z,2.000000000000001
2022-12-02T04:17:16.000Z,2.000000000000001
2022-12-02T04:17:39.000Z,2.000000000000001
2022-12-02T04:18:06.000Z,2.000000000000001
2022-12-02T04:18:26.000Z,2.1111111111111094
2022-12-02T04:18:56.000Z,2.1111111111111094
2022-12-02T04:19:31.000Z,2.1111111111111094
2022-12-02T04:20:01.000Z,2.1111111111111094
2022-12-02T04:20:36.000Z,2.1111111111111094
2022-12-02T04:21:06.000Z,2.1111111111111094
2022-12-02T04:21:36.000Z,2.1111111111111094
2022-12-02T04:22:03.000Z,2.1111111111111094
2022-12-02T04:22:27.000Z,2.1111111111111094
2022-12-02T04:22:56.000Z,2.1111111111111094
2022-12-02T04:23:31.000Z,2.1111111111111094
2022-12-02T04:24:01.000Z,2.1111111111111094
2022-12-02T04:24:36.000Z,2.1111111111111094
2022-12-02T04:25:16.000Z,2.1111111111111094
2022-12-02T04:25:46.000Z,2.1111111111111094